createdAt,value
2019-05-14T00:02:21.391Z,71.50
2019-05-14T00:04:51.217Z,71.70
2019-05-14T00:07:22.173Z,72.00
2019-05-14T00:09:51.918Z,72.00
2019-05-14T00:12:22.140Z,72.60
2019-05-14T00:14:51.585Z,73.10
2019-05-14T00:17:21.453Z,73.10
2019-05-14T00:20:05.862Z,73.40
2019-05-14T00:22:21.754Z,74.60
2019-05-14T00:24:51.801Z,75.20
2019-05-14T00:27:21.697Z,76.00
2019-05-14T00:29:51.832Z,76.90
2019-05-14T00:32:21.635Z,77.20
2019-05-14T00:34:51.625Z,78.20
2019-05-14T00:37:21.690Z,78.00
2019-05-14T00:39:52.025Z,77.60
2019-05-14T00:42:21.587Z,77.00
2019-05-14T00:44:57.498Z,76.80
2019-05-14T00:47:21.747Z,76.80
2019-05-14T00:49:51.806Z,76.90
2019-05-14T00:52:22.248Z,76.80
2019-05-14T00:54:52.256Z,77.00
2019-05-14T00:57:21.177Z,77.30
2019-05-14T00:59:51.927Z,77.60
2019-05-14T01:02:21.597Z,77.80
2019-05-14T01:04:51.391Z,77.80
2019-05-14T01:07:21.145Z,78.20
2019-05-14T01:09:52.136Z,78.50
2019-05-14T01:12:21.430Z,78.80
2019-05-14T01:14:51.565Z,78.90
2019-05-14T01:17:19.484Z,79.50
2019-05-14T01:19:47.757Z,79.60
2019-05-14T01:22:16.004Z,79.80
2019-05-14T01:24:44.268Z,80.10
2019-05-14T01:27:12.699Z,80.60
2019-05-14T01:29:42.487Z,80.50
2019-05-14T01:32:11.821Z,80.70
2019-05-14T01:34:42.119Z,81.10
2019-05-14T01:37:11.680Z,81.30
2019-05-14T01:39:41.864Z,81.60
2019-05-14T01:42:12.484Z,81.50
2019-05-14T01:44:41.243Z,81.60
2019-05-14T01:47:12.437Z,81.50
2019-05-14T01:49:42.518Z,81.60
2019-05-14T01:52:11.317Z,81.90
2019-05-14T01:54:42.442Z,81.90
2019-05-14T01:57:11.490Z,82.10
2019-05-14T01:59:42.518Z,82.30
2019-05-14T02:02:11.602Z,82.10
2019-05-14T02:04:42.440Z,82.30
2019-05-14T02:07:11.530Z,82.40
2019-05-14T02:09:41.753Z,82.50
2019-05-14T02:12:11.584Z,82.80
2019-05-14T02:14:42.137Z,83.10
2019-05-14T02:17:09.484Z,83.80
2019-05-14T02:19:37.753Z,84.00
2019-05-14T02:22:25.416Z,84.20
2019-05-14T02:24:53.652Z,84.60
2019-05-14T02:27:21.889Z,84.80
2019-05-14T02:29:51.917Z,84.80
2019-05-14T02:32:20.101Z,85.60
2019-05-14T02:34:49.961Z,85.50
2019-05-14T02:37:19.451Z,85.70
2019-05-14T02:39:50.280Z,85.60
2019-05-14T02:42:19.665Z,85.90
2019-05-14T02:44:49.014Z,86.00
2019-05-14T02:47:19.452Z,86.60
2019-05-14T02:49:50.101Z,86.90
2019-05-14T02:52:20.349Z,87.30
2019-05-14T02:54:49.529Z,87.70
2019-05-14T02:57:20.025Z,87.80
2019-05-14T02:59:50.190Z,87.80
2019-05-14T03:02:18.809Z,88.00
2019-05-14T03:04:49.827Z,88.40
2019-05-14T03:07:19.441Z,88.20
2019-05-14T03:09:50.297Z,88.60
2019-05-14T03:12:19.359Z,88.80
2019-05-14T03:14:49.790Z,89.50
2019-05-14T03:17:19.929Z,89.80
2019-05-14T03:19:49.591Z,89.70
2019-05-14T03:22:25.878Z,89.80
2019-05-14T03:24:50.012Z,89.50
2019-05-14T03:27:19.359Z,89.50
2019-05-14T03:29:49.560Z,90.00
2019-05-14T03:32:21.781Z,90.10
2019-05-14T03:34:52.190Z,90.40
2019-05-14T03:37:22.562Z,90.30
2019-05-14T03:39:49.327Z,90.40
2019-05-14T03:42:19.353Z,90.60
2019-05-14T03:44:49.068Z,90.30
2019-05-14T03:47:19.402Z,90.00
2019-05-14T03:49:49.564Z,89.60
2019-05-14T03:52:19.639Z,88.20
2019-05-14T03:54:49.713Z,86.80
2019-05-14T03:57:19.786Z,86.50
2019-05-14T03:59:49.621Z,87.00
2019-05-14T04:02:19.804Z,87.80
2019-05-14T04:04:49.761Z,87.90
2019-05-14T04:07:19.391Z,87.90
2019-05-14T04:09:49.324Z,88.90
2019-05-14T04:12:19.178Z,87.10
2019-05-14T04:14:46.470Z,81.80
2019-05-14T04:17:25.926Z,74.70
2019-05-14T04:19:49.297Z,69.30
2019-05-14T04:22:19.037Z,65.00
2019-05-14T04:24:49.374Z,62.00
2019-05-14T04:27:16.247Z,60.40
2019-05-14T04:29:44.502Z,58.20
2019-05-14T04:32:12.787Z,57.20
2019-05-14T04:34:41.069Z,57.90
2019-05-14T04:37:10.091Z,59.90
2019-05-14T04:39:39.563Z,64.20
2019-05-14T04:42:09.526Z,69.00
2019-05-14T04:44:40.303Z,67.10
2019-05-14T04:47:22.746Z,64.10
2019-05-14T04:49:39.908Z,63.30
2019-05-14T04:52:09.942Z,63.40
2019-05-14T04:54:39.376Z,62.40
2019-05-14T04:57:10.226Z,64.50
2019-05-14T04:59:39.628Z,63.10
2019-05-14T05:02:09.566Z,65.60
2019-05-14T05:04:41.013Z,61.50
2019-05-14T05:07:09.864Z,56.00
2019-05-14T05:09:39.717Z,51.40
2019-05-14T05:12:09.110Z,46.50
2019-05-14T05:14:38.981Z,43.00
2019-05-14T05:17:09.105Z,41.50
2019-05-14T05:19:39.841Z,41.00
2019-05-14T05:22:08.114Z,41.80
2019-05-14T05:24:38.080Z,39.90
2019-05-14T05:27:08.972Z,38.30
2019-05-14T05:29:36.373Z,39.00
2019-05-14T05:32:04.640Z,42.60
2019-05-14T05:34:32.880Z,45.50
2019-05-14T05:37:01.128Z,45.70
2019-05-14T05:39:29.382Z,44.10
2019-05-14T05:41:58.519Z,42.70
2019-05-14T05:44:28.796Z,40.70
2019-05-14T05:46:59.431Z,40.00
2019-05-14T05:49:29.178Z,37.50
2019-05-14T05:51:59.169Z,36.90
2019-05-14T05:54:29.106Z,37.30
2019-05-14T05:56:58.128Z,36.80
2019-05-14T05:59:29.016Z,36.30
2019-05-14T06:01:58.730Z,36.00
2019-05-14T06:04:28.756Z,35.60
2019-05-14T06:06:58.550Z,35.80
2019-05-14T06:09:28.582Z,35.90
2019-05-14T06:11:59.022Z,35.10
2019-05-14T06:14:26.450Z,35.40
2019-05-14T06:16:54.705Z,35.00
2019-05-14T06:19:22.952Z,34.70
2019-05-14T06:21:51.197Z,35.80
2019-05-14T06:24:19.538Z,35.10
2019-05-14T06:26:49.035Z,35.70
2019-05-14T06:29:18.664Z,35.60
2019-05-14T06:31:49.372Z,36.10
2019-05-14T06:34:18.687Z,36.20
2019-05-14T06:36:48.661Z,36.40
2019-05-14T06:39:18.296Z,35.90
2019-05-14T06:41:48.994Z,35.10
2019-05-14T06:44:18.740Z,36.40
2019-05-14T06:46:48.669Z,35.40
2019-05-14T06:49:18.361Z,34.20
2019-05-14T06:51:48.958Z,34.20
2019-05-14T06:54:19.620Z,35.30
2019-05-14T06:56:48.800Z,35.00
2019-05-14T06:59:18.175Z,35.40
2019-05-14T07:01:48.760Z,36.60
2019-05-14T07:04:18.165Z,37.30
2019-05-14T07:06:48.536Z,36.60
2019-05-14T07:09:18.383Z,35.20
2019-05-14T07:11:48.939Z,34.20
2019-05-14T07:14:18.786Z,34.60
2019-05-14T07:16:48.505Z,35.80
2019-05-14T07:19:19.080Z,36.50
2019-05-14T07:21:48.998Z,36.10
2019-05-14T07:24:19.266Z,36.80
2019-05-14T07:26:49.124Z,35.70
2019-05-14T07:29:18.513Z,36.70
2019-05-14T07:31:48.753Z,36.40
2019-05-14T07:34:16.331Z,37.20
2019-05-14T07:36:44.584Z,38.10
2019-05-14T07:39:12.845Z,37.40
2019-05-14T07:41:41.089Z,35.50
2019-05-14T07:44:09.427Z,35.40
2019-05-14T07:46:38.987Z,37.30
2019-05-14T07:49:11.432Z,35.20
2019-05-14T07:51:38.756Z,34.10
2019-05-14T07:54:08.363Z,34.20
2019-05-14T07:56:38.451Z,34.40
2019-05-14T07:59:08.910Z,32.80
2019-05-14T08:01:38.843Z,32.00
2019-05-14T08:04:11.077Z,31.70
2019-05-14T08:06:39.204Z,33.50
2019-05-14T08:09:09.016Z,32.50
2019-05-14T08:11:38.772Z,30.20
2019-05-14T08:14:09.052Z,30.50
2019-05-14T08:16:38.113Z,30.90
2019-05-14T08:19:23.045Z,32.70
2019-05-14T08:21:38.789Z,33.40
2019-05-14T08:24:08.823Z,32.80
2019-05-14T08:26:38.239Z,34.70
2019-05-14T08:29:08.600Z,34.00
2019-05-14T08:31:38.338Z,33.20
2019-05-14T08:34:09.064Z,32.60
2019-05-14T08:36:38.030Z,33.40
2019-05-14T08:39:08.845Z,35.00
2019-05-14T08:41:38.390Z,38.20
2019-05-14T08:44:08.571Z,36.80
2019-05-14T08:46:38.849Z,37.90
2019-05-14T08:49:08.950Z,38.10
2019-05-14T08:51:38.780Z,37.10
2019-05-14T08:54:08.249Z,36.00
2019-05-14T08:56:38.921Z,38.50
2019-05-14T08:59:08.646Z,38.90
2019-05-14T09:01:38.703Z,37.50
2019-05-14T09:04:08.980Z,36.30
2019-05-14T09:06:38.512Z,41.00
2019-05-14T09:09:09.249Z,37.90
2019-05-14T09:11:44.593Z,36.10
2019-05-14T09:14:10.780Z,38.20
2019-05-14T09:16:46.225Z,38.20
2019-05-14T09:19:08.718Z,36.90
2019-05-14T09:21:39.808Z,38.00
2019-05-14T09:24:09.572Z,37.00
2019-05-14T09:26:39.121Z,37.20
2019-05-14T09:29:19.707Z,37.80
2019-05-14T09:31:40.140Z,37.60
2019-05-14T09:34:09.209Z,39.00
2019-05-14T09:36:39.549Z,36.40
2019-05-14T09:39:11.804Z,37.90
2019-05-14T09:41:38.795Z,37.60
2019-05-14T09:44:09.319Z,36.70
2019-05-14T09:46:38.454Z,39.20
2019-05-14T09:49:08.037Z,38.20
2019-05-14T09:51:38.359Z,38.80
2019-05-14T09:54:08.599Z,37.40
2019-05-14T09:56:39.349Z,38.00
2019-05-14T09:59:09.014Z,39.60
2019-05-14T10:01:38.369Z,38.40
2019-05-14T10:04:09.035Z,38.80
2019-05-14T10:06:39.023Z,38.10
2019-05-14T10:09:08.527Z,38.20
2019-05-14T10:11:38.368Z,37.00
2019-05-14T10:14:07.949Z,37.50
2019-05-14T10:16:38.441Z,36.50
2019-05-14T10:19:06.469Z,38.60
2019-05-14T10:21:34.712Z,39.10
2019-05-14T10:24:02.967Z,39.70
2019-05-14T10:26:31.216Z,39.40
2019-05-14T10:28:59.464Z,37.30
2019-05-14T10:31:28.883Z,36.20
2019-05-14T10:33:58.887Z,37.70
2019-05-14T10:36:29.805Z,36.80
2019-05-14T10:38:58.816Z,37.80
2019-05-14T10:41:29.084Z,37.30
2019-05-14T10:43:58.849Z,37.70
2019-05-14T10:46:29.060Z,37.40
2019-05-14T10:49:00.223Z,35.00
2019-05-14T10:51:28.298Z,39.50
2019-05-14T10:53:59.450Z,35.70
2019-05-14T10:56:29.523Z,36.80
2019-05-14T10:58:58.367Z,37.20
2019-05-14T11:01:28.484Z,35.10
2019-05-14T11:03:56.850Z,38.60
2019-05-14T11:06:25.100Z,36.40
2019-05-14T11:08:53.364Z,36.00
2019-05-14T11:11:21.604Z,37.30
2019-05-14T11:13:49.850Z,38.30
2019-05-14T11:16:19.090Z,36.80
2019-05-14T11:18:49.658Z,38.20
2019-05-14T11:21:25.982Z,40.30
2019-05-14T11:23:49.135Z,35.80
2019-05-14T11:26:18.413Z,37.00
2019-05-14T11:28:49.103Z,36.60
2019-05-14T11:31:19.064Z,38.70
2019-05-14T11:33:49.380Z,38.30
2019-05-14T11:36:18.765Z,36.50
2019-05-14T11:38:46.980Z,34.30
2019-05-14T11:41:15.233Z,33.70
2019-05-14T11:43:43.481Z,34.40
2019-05-14T11:46:11.757Z,33.30
2019-05-14T11:48:40.057Z,34.30
2019-05-14T11:51:09.176Z,35.40
2019-05-14T11:53:38.642Z,38.00
2019-05-14T11:56:08.706Z,38.00
2019-05-14T11:58:37.128Z,35.70
2019-05-14T12:01:05.385Z,35.60
2019-05-14T12:03:33.629Z,35.00
2019-05-14T12:06:01.883Z,34.60
2019-05-14T12:08:30.124Z,35.30
2019-05-14T12:10:59.343Z,32.70
2019-05-14T12:13:32.119Z,34.50
2019-05-14T12:15:59.130Z,35.30
2019-05-14T12:18:29.217Z,34.20
2019-05-14T12:20:59.410Z,35.10
2019-05-14T12:23:29.780Z,36.20
2019-05-14T12:25:58.808Z,39.20
2019-05-14T12:28:29.211Z,38.40
2019-05-14T12:30:58.350Z,37.90
2019-05-14T12:33:30.501Z,37.60
2019-05-14T12:36:00.262Z,36.80
2019-05-14T12:38:29.506Z,36.80
2019-05-14T12:40:58.489Z,32.20
2019-05-14T12:43:28.297Z,34.10
2019-05-14T12:45:59.370Z,34.50
2019-05-14T12:48:29.539Z,35.60
2019-05-14T12:50:59.316Z,33.50
2019-05-14T12:53:28.799Z,37.20
2019-05-14T12:55:56.816Z,36.50
2019-05-14T12:58:25.064Z,33.40
2019-05-14T13:00:53.322Z,31.90
2019-05-14T13:03:21.561Z,33.10
2019-05-14T13:05:49.817Z,33.40
2019-05-14T13:08:18.518Z,34.30
2019-05-14T13:10:49.259Z,35.90
2019-05-14T13:13:19.571Z,36.50
2019-05-14T13:15:48.448Z,35.80
2019-05-14T13:18:19.259Z,37.50
2019-05-14T13:20:48.143Z,35.20
2019-05-14T13:23:18.421Z,36.80
2019-05-14T13:25:46.572Z,35.90
2019-05-14T13:28:14.821Z,33.20
2019-05-14T13:30:43.081Z,35.70
2019-05-14T13:33:11.340Z,32.60
2019-05-14T13:35:39.661Z,33.60
2019-05-14T13:38:13.992Z,33.60
2019-05-14T13:40:39.219Z,31.90
2019-05-14T13:43:09.822Z,32.70
2019-05-14T13:45:39.161Z,31.10
2019-05-14T13:48:08.478Z,31.00
2019-05-14T13:50:39.973Z,33.20
2019-05-14T13:53:12.275Z,34.60
2019-05-14T13:55:44.352Z,36.30
2019-05-14T13:58:09.515Z,35.30
2019-05-14T14:00:36.998Z,34.90
2019-05-14T14:03:05.258Z,34.00
2019-05-14T14:05:33.493Z,33.80
2019-05-14T14:08:01.754Z,32.80
2019-05-14T14:10:31.424Z,31.50
2019-05-14T14:12:59.965Z,31.40
2019-05-14T14:15:28.878Z,30.90
2019-05-14T14:17:57.336Z,32.40
2019-05-14T14:20:25.574Z,32.90
2019-05-14T14:22:53.825Z,32.20
2019-05-14T14:25:22.076Z,34.50
2019-05-14T14:27:50.320Z,34.30
2019-05-14T14:30:19.502Z,35.60
2019-05-14T14:32:49.518Z,35.40
2019-05-14T14:35:23.776Z,36.10
2019-05-14T14:37:49.355Z,36.10
2019-05-14T14:40:21.411Z,36.40
2019-05-14T14:42:49.209Z,35.60
2019-05-14T14:45:21.514Z,35.50
2019-05-14T14:47:49.771Z,37.50
2019-05-14T14:50:19.400Z,36.70
2019-05-14T14:52:49.583Z,36.50
2019-05-14T14:55:19.287Z,33.90
2019-05-14T14:57:53.697Z,33.90
2019-05-14T15:00:19.396Z,34.20
2019-05-14T15:02:49.585Z,32.50
2019-05-14T15:05:20.007Z,33.40
2019-05-14T15:07:49.741Z,33.70
2019-05-14T15:10:19.321Z,33.30
2019-05-14T15:12:49.653Z,35.10
2019-05-14T15:15:18.635Z,34.20
2019-05-14T15:17:48.378Z,34.40
2019-05-14T15:20:19.284Z,34.00
2019-05-14T15:22:49.153Z,33.80
2019-05-14T15:25:18.497Z,34.30
2019-05-14T15:27:48.908Z,35.60
2019-05-14T15:30:16.728Z,37.60
2019-05-14T15:32:44.985Z,34.60
2019-05-14T15:35:13.237Z,33.40
2019-05-14T15:37:42.729Z,32.30
2019-05-14T15:40:11.425Z,33.30
2019-05-14T15:42:39.833Z,34.00
2019-05-14T15:45:09.392Z,35.40
2019-05-14T15:47:39.074Z,36.90
2019-05-14T15:50:09.165Z,36.10
2019-05-14T15:52:39.371Z,35.00
2019-05-14T15:55:08.772Z,35.80
2019-05-14T15:57:39.648Z,36.80
2019-05-14T16:00:08.709Z,36.20
2019-05-14T16:02:39.381Z,38.30
2019-05-14T16:05:10.052Z,36.90
2019-05-14T16:07:39.283Z,37.60
2019-05-14T16:10:08.625Z,37.40
2019-05-14T16:12:39.765Z,35.90
2019-05-14T16:15:08.611Z,36.60
2019-05-14T16:17:47.786Z,34.40
2019-05-14T16:20:08.945Z,37.10
2019-05-14T16:22:39.832Z,35.70
2019-05-14T16:25:09.034Z,32.50
2019-05-14T16:27:39.477Z,35.30
2019-05-14T16:30:09.857Z,36.40
2019-05-14T16:32:39.400Z,38.00
2019-05-14T16:35:08.855Z,37.30
2019-05-14T16:37:39.286Z,37.80
2019-05-14T16:40:07.643Z,38.50
2019-05-14T16:42:35.889Z,38.80
2019-05-14T16:45:04.789Z,38.40
2019-05-14T16:47:33.033Z,36.40
2019-05-14T16:50:01.295Z,37.00
2019-05-14T16:52:29.544Z,38.80
2019-05-14T16:55:16.981Z,37.60
2019-05-14T16:57:29.367Z,36.10
2019-05-14T16:59:58.571Z,34.90
2019-05-14T17:02:29.432Z,35.60
2019-05-14T17:04:58.900Z,35.70
2019-05-14T17:07:28.727Z,34.60
2019-05-14T17:09:58.154Z,37.30
2019-05-14T17:12:29.210Z,36.90
2019-05-14T17:14:58.651Z,36.90
2019-05-14T17:17:26.541Z,36.50
2019-05-14T17:19:54.789Z,37.50
2019-05-14T17:22:29.051Z,36.00
2019-05-14T17:24:53.032Z,37.90
2019-05-14T17:27:21.265Z,37.30
2019-05-14T17:29:49.754Z,38.30
2019-05-14T17:32:18.762Z,39.00
2019-05-14T17:34:49.030Z,38.90
2019-05-14T17:37:19.052Z,38.60
2019-05-14T17:39:48.936Z,39.00
2019-05-14T17:42:19.287Z,37.20
2019-05-14T17:44:48.222Z,38.00
2019-05-14T17:47:18.358Z,38.20
2019-05-14T17:49:48.524Z,38.10
2019-05-14T17:52:21.717Z,39.90
2019-05-14T17:54:48.424Z,39.00
2019-05-14T17:57:23.657Z,38.40
2019-05-14T17:59:49.122Z,37.60
2019-05-14T18:02:18.894Z,38.10
2019-05-14T18:04:48.780Z,38.10
2019-05-14T18:07:18.998Z,37.60
2019-05-14T18:09:46.551Z,36.30
2019-05-14T18:12:14.793Z,37.10
2019-05-14T18:14:43.032Z,37.90
2019-05-14T18:17:14.658Z,38.50
2019-05-14T18:19:41.257Z,38.40
2019-05-14T18:22:09.512Z,38.70
2019-05-14T18:24:39.277Z,37.70
2019-05-14T18:27:08.363Z,39.30
2019-05-14T18:29:39.013Z,39.00
2019-05-14T18:32:08.978Z,38.90
2019-05-14T18:34:38.992Z,40.10
2019-05-14T18:37:13.504Z,39.70
2019-05-14T18:39:39.246Z,41.20
2019-05-14T18:42:08.649Z,40.00
2019-05-14T18:44:38.940Z,39.90
2019-05-14T18:47:08.713Z,39.00
2019-05-14T18:49:37.481Z,39.30
2019-05-14T18:52:05.747Z,40.20
2019-05-14T18:54:34.188Z,40.50
2019-05-14T18:57:02.514Z,41.00
2019-05-14T18:59:33.954Z,40.90
2019-05-14T19:02:02.213Z,41.50
2019-05-14T19:04:30.463Z,42.00
2019-05-14T19:06:59.113Z,42.30
2019-05-14T19:09:29.241Z,42.90
2019-05-14T19:11:58.812Z,43.40
2019-05-14T19:14:29.270Z,42.80
2019-05-14T19:16:58.548Z,43.20
2019-05-14T19:19:29.373Z,43.30
2019-05-14T19:21:58.357Z,44.40
2019-05-14T19:24:28.649Z,45.00
2019-05-14T19:26:59.367Z,45.70
2019-05-14T19:29:28.185Z,46.50
2019-05-14T19:31:56.680Z,46.50
2019-05-14T19:34:24.917Z,46.50
2019-05-14T19:36:53.160Z,46.00
2019-05-14T19:39:21.408Z,46.60
2019-05-14T19:41:49.815Z,46.80
2019-05-14T19:44:19.168Z,47.00
2019-05-14T19:46:49.210Z,47.00
2019-05-14T19:49:18.470Z,46.90
2019-05-14T19:51:48.299Z,47.30
2019-05-14T19:54:19.477Z,47.20
2019-05-14T19:56:55.701Z,47.90
2019-05-14T19:59:18.329Z,47.90
2019-05-14T20:01:48.421Z,48.00
2019-05-14T20:04:18.336Z,48.30
2019-05-14T20:06:49.428Z,48.90
2019-05-14T20:09:18.784Z,49.00
2019-05-14T20:11:49.039Z,49.70
2019-05-14T20:14:17.002Z,49.70
2019-05-14T20:16:45.244Z,49.80
2019-05-14T20:19:13.491Z,50.30
2019-05-14T20:21:41.741Z,50.80
2019-05-14T20:24:09.980Z,51.20
2019-05-14T20:26:39.031Z,51.30
2019-05-14T20:29:08.751Z,51.70
2019-05-14T20:31:38.917Z,51.80
2019-05-14T20:34:08.480Z,52.20
2019-05-14T20:36:38.791Z,52.70
2019-05-14T20:39:08.624Z,52.60
2019-05-14T20:41:38.431Z,52.90
2019-05-14T20:44:06.740Z,53.10
2019-05-14T20:46:34.986Z,53.30
2019-05-14T20:49:03.248Z,53.70
2019-05-14T20:51:31.485Z,54.30
2019-05-14T20:53:59.733Z,55.10
2019-05-14T20:56:28.529Z,55.20
2019-05-14T20:58:58.821Z,55.10
2019-05-14T21:01:28.913Z,55.10
2019-05-14T21:03:59.027Z,55.30
2019-05-14T21:06:28.040Z,55.70
2019-05-14T21:08:58.506Z,55.70
2019-05-14T21:11:28.798Z,55.70
2019-05-14T21:13:58.109Z,56.10
2019-05-14T21:16:28.284Z,56.70
2019-05-14T21:18:59.055Z,56.80
2019-05-14T21:21:28.264Z,57.00
2019-05-14T21:23:58.718Z,57.30
2019-05-14T21:26:29.045Z,57.40
2019-05-14T21:28:58.311Z,57.50
2019-05-14T21:31:28.414Z,58.00
2019-05-14T21:33:58.603Z,59.10
2019-05-14T21:36:28.394Z,58.70
2019-05-14T21:38:58.671Z,58.80
2019-05-14T21:41:28.934Z,58.70
2019-05-14T21:43:58.450Z,59.90
2019-05-14T21:46:28.896Z,60.60
2019-05-14T21:48:58.417Z,61.10
2019-05-14T21:51:28.348Z,61.60
2019-05-14T21:53:58.662Z,61.50
2019-05-14T21:56:28.999Z,61.60
2019-05-14T21:58:58.575Z,61.60
2019-05-14T22:01:27.739Z,61.40
2019-05-14T22:03:56.420Z,61.70
2019-05-14T22:06:24.673Z,61.90
2019-05-14T22:08:52.918Z,62.00
2019-05-14T22:11:21.156Z,62.50
2019-05-14T22:13:49.751Z,63.50
2019-05-14T22:16:18.994Z,64.20
2019-05-14T22:18:48.402Z,65.00
2019-05-14T22:21:18.327Z,65.90
2019-05-14T22:23:48.175Z,66.90
2019-05-14T22:26:18.654Z,67.60
2019-05-14T22:28:47.897Z,68.50
2019-05-14T22:31:17.163Z,69.10
2019-05-14T22:33:46.257Z,70.10
2019-05-14T22:36:14.492Z,70.60
2019-05-14T22:38:42.756Z,70.90
2019-05-14T22:41:11.574Z,71.30
2019-05-14T22:43:40.116Z,72.10
2019-05-14T22:46:08.530Z,72.60
2019-05-14T22:48:37.079Z,72.80
2019-05-14T22:51:05.317Z,73.40
2019-05-14T22:53:33.565Z,73.80
2019-05-14T22:56:01.796Z,74.20
2019-05-14T22:58:30.039Z,75.80
2019-05-14T23:01:13.199Z,75.60
2019-05-14T23:03:28.825Z,76.50
2019-05-14T23:05:58.193Z,76.60
2019-05-14T23:08:26.829Z,76.30
2019-05-14T23:10:55.076Z,75.50
2019-05-14T23:13:23.316Z,75.60
2019-05-14T23:15:51.566Z,75.50
2019-05-14T23:18:19.800Z,75.70
2019-05-14T23:20:49.224Z,75.70
2019-05-14T23:23:18.528Z,76.30
2019-05-14T23:25:46.994Z,76.20
2019-05-14T23:28:15.226Z,75.40
2019-05-14T23:30:43.481Z,74.70
2019-05-14T23:33:11.785Z,73.80
2019-05-14T23:35:40.032Z,73.10
2019-05-14T23:38:08.534Z,73.10
2019-05-14T23:40:38.732Z,72.30
2019-05-14T23:43:06.928Z,72.70
2019-05-14T23:45:35.185Z,71.50
2019-05-14T23:48:03.427Z,71.50
2019-05-14T23:50:31.684Z,70.80
2019-05-14T23:53:00.182Z,70.80
2019-05-14T23:55:28.936Z,70.40
2019-05-14T23:57:58.624Z,69.60
